createdAt,value
2019-04-10T00:01:43.319Z,27.60
2019-04-10T00:06:47.909Z,23.37
2019-04-10T00:11:51.793Z,23.87
2019-04-10T00:16:56.390Z,26.10
2019-04-10T00:22:00.478Z,22.20
2019-04-10T00:27:04.306Z,27.73
2019-04-10T00:32:07.831Z,22.07
2019-04-10T00:37:22.178Z,21.77
2019-04-10T00:42:16.869Z,21.97
2019-04-10T00:47:21.219Z,21.73
2019-04-10T00:52:25.030Z,19.77
2019-04-10T00:57:29.552Z,22.83
2019-04-10T01:02:34.497Z,19.17
2019-04-10T01:07:41.159Z,22.03
2019-04-10T01:12:44.005Z,20.57
2019-04-10T01:17:48.598Z,22.10
2019-04-10T01:22:52.863Z,22.27
2019-04-10T01:27:56.387Z,19.67
2019-04-10T01:33:00.668Z,20.60
2019-04-10T01:38:06.137Z,22.67
2019-04-10T01:43:13.296Z,18.50
2019-04-10T01:48:15.385Z,19.77
2019-04-10T01:53:19.713Z,19.27
2019-04-10T01:58:25.206Z,20.20
2019-04-10T02:03:29.885Z,17.70
2019-04-10T02:08:34.086Z,21.90
2019-04-10T02:13:39.251Z,17.20
2019-04-10T02:18:43.774Z,20.43
2019-04-10T02:23:47.706Z,16.83
2019-04-10T02:28:51.414Z,20.30
2019-04-10T02:33:56.950Z,15.47
2019-04-10T02:39:14.365Z,15.20
2019-04-10T02:44:05.473Z,17.47
2019-04-10T02:49:09.601Z,17.10
2019-04-10T02:54:13.691Z,25.20
2019-04-10T02:59:18.686Z,15.03
2019-04-10T03:04:24.319Z,20.07
2019-04-10T03:09:42.043Z,16.63
2019-04-10T03:14:34.541Z,14.77
2019-04-10T03:19:38.111Z,13.70
2019-04-10T03:24:41.613Z,13.90
2019-04-10T03:29:46.330Z,17.40
2019-04-10T03:34:51.335Z,15.00
2019-04-10T03:39:57.282Z,17.17
2019-04-10T03:45:01.541Z,17.27
2019-04-10T03:50:05.273Z,16.20
2019-04-10T03:55:08.795Z,16.00
2019-04-10T04:00:12.316Z,15.60
2019-04-10T04:05:15.839Z,14.47
2019-04-10T04:10:20.405Z,14.03
2019-04-10T04:15:24.198Z,17.53
2019-04-10T04:20:28.650Z,18.47
2019-04-10T04:25:32.474Z,18.20
2019-04-10T04:30:36.308Z,16.80
2019-04-10T04:35:40.843Z,14.63
2019-04-10T04:40:44.561Z,15.40
2019-04-10T04:45:48.372Z,15.20
2019-04-10T04:50:52.341Z,18.50
2019-04-10T04:55:55.964Z,14.57
2019-04-10T05:00:59.575Z,15.67
2019-04-10T05:06:03.809Z,18.63
2019-04-10T05:11:07.540Z,16.90
2019-04-10T05:16:11.174Z,16.33
2019-04-10T05:21:14.889Z,14.23
2019-04-10T05:26:18.694Z,14.73
2019-04-10T05:31:23.467Z,16.43
2019-04-10T05:36:27.299Z,15.53
2019-04-10T05:41:31.437Z,16.00
2019-04-10T05:46:35.262Z,15.47
2019-04-10T05:51:39.560Z,15.17
2019-04-10T05:56:43.212Z,17.63
2019-04-10T06:01:47.042Z,16.37
2019-04-10T06:06:50.766Z,18.37
2019-04-10T06:11:55.238Z,13.20
2019-04-10T06:17:02.505Z,18.47
2019-04-10T06:22:05.241Z,20.50
2019-04-10T06:27:10.242Z,15.33
2019-04-10T06:32:14.003Z,16.20
2019-04-10T06:37:17.711Z,17.00
2019-04-10T06:42:22.468Z,34.70
2019-04-10T06:47:26.718Z,40.33
2019-04-10T06:52:30.443Z,33.40
2019-04-10T06:57:48.096Z,29.97
2019-04-10T07:02:39.132Z,29.50
2019-04-10T07:07:51.399Z,31.70
2019-04-10T07:12:47.849Z,60.37
2019-04-10T07:17:53.321Z,30.43
2019-04-10T07:22:58.255Z,38.07
2019-04-10T07:28:02.877Z,33.73
2019-04-10T07:33:07.692Z,33.77
2019-04-10T07:38:11.825Z,32.37
2019-04-10T07:43:15.897Z,29.30
2019-04-10T07:48:20.474Z,26.90
2019-04-10T07:53:24.651Z,30.10
2019-04-10T07:58:29.205Z,26.93
2019-04-10T08:03:33.377Z,22.30
2019-04-10T08:08:38.132Z,23.60
2019-04-10T08:13:42.845Z,20.87
2019-04-10T08:18:46.386Z,30.83
2019-04-10T08:23:51.446Z,24.97
2019-04-10T08:28:55.251Z,24.93
2019-04-10T08:33:59.034Z,22.20
2019-04-10T08:39:03.219Z,28.57
2019-04-10T08:44:06.947Z,25.00
2019-04-10T08:49:10.455Z,22.50
2019-04-10T08:54:14.103Z,24.37
2019-04-10T08:59:17.816Z,23.47
2019-04-10T09:04:21.429Z,20.67
2019-04-10T09:09:25.720Z,25.10
2019-04-10T09:14:29.745Z,21.07
2019-04-10T09:19:34.037Z,25.20
2019-04-10T09:24:38.387Z,20.07
2019-04-10T09:29:42.430Z,24.13
2019-04-10T09:34:46.777Z,21.40
2019-04-10T09:39:53.416Z,24.60
2019-04-10T09:44:57.021Z,25.17
2019-04-10T09:50:00.805Z,21.80
2019-04-10T09:55:07.515Z,24.17
2019-04-10T10:00:12.014Z,24.93
2019-04-10T10:05:15.560Z,24.10
2019-04-10T10:10:19.179Z,21.43
2019-04-10T10:15:23.163Z,27.93
2019-04-10T10:20:27.925Z,27.03
2019-04-10T10:25:31.898Z,20.07
2019-04-10T10:30:35.609Z,23.87
2019-04-10T10:35:39.361Z,26.93
2019-04-10T10:40:43.663Z,24.87
2019-04-10T10:45:47.497Z,27.93
2019-04-10T10:50:51.027Z,21.10
2019-04-10T10:55:54.561Z,24.10
2019-04-10T11:00:58.084Z,25.93
2019-04-10T11:06:02.467Z,21.17
2019-04-10T11:11:06.360Z,25.17
2019-04-10T11:16:10.169Z,58.43
2019-04-10T11:21:14.133Z,51.40
2019-04-10T11:26:20.540Z,50.50
2019-04-10T11:31:23.840Z,38.70
2019-04-10T11:36:28.295Z,35.13
2019-04-10T11:41:33.056Z,34.93
2019-04-10T11:46:38.681Z,42.97
2019-04-10T11:51:45.321Z,41.60
2019-04-10T11:56:49.085Z,29.10
2019-04-10T12:01:57.133Z,38.90
2019-04-10T12:07:01.168Z,33.70
2019-04-10T12:12:03.586Z,25.67
2019-04-10T12:17:07.776Z,32.33
2019-04-10T12:22:11.677Z,31.40
2019-04-10T12:27:15.317Z,28.80
2019-04-10T12:32:18.952Z,34.30
2019-04-10T12:37:23.524Z,60.60
2019-04-10T12:42:28.091Z,29.03
2019-04-10T12:47:32.279Z,33.33
2019-04-10T12:52:36.102Z,27.53
2019-04-10T12:57:39.838Z,25.30
2019-04-10T13:02:43.361Z,27.37
2019-04-10T13:07:47.709Z,25.70
2019-04-10T13:12:51.460Z,28.10
2019-04-10T13:17:57.000Z,24.93
2019-04-10T13:23:00.377Z,29.50
2019-04-10T13:28:04.018Z,21.53
2019-04-10T13:33:08.604Z,20.63
2019-04-10T13:38:22.748Z,25.17
2019-04-10T13:43:18.019Z,22.67
2019-04-10T13:48:22.855Z,25.47
2019-04-10T13:53:27.802Z,24.57
2019-04-10T13:58:31.702Z,27.47
2019-04-10T14:03:35.220Z,24.67
2019-04-10T14:09:01.831Z,22.03
2019-04-10T14:13:44.215Z,21.27
2019-04-10T14:18:48.785Z,22.97
2019-04-10T14:23:53.586Z,29.37
2019-04-10T14:28:57.642Z,24.97
2019-04-10T14:34:02.157Z,21.77
2019-04-10T14:39:17.504Z,18.33
2019-04-10T14:44:18.441Z,14.37
2019-04-10T14:49:21.960Z,22.77
2019-04-10T14:54:26.032Z,19.83
2019-04-10T14:59:29.921Z,28.70
2019-04-10T15:04:33.439Z,26.23
2019-04-10T15:09:37.278Z,25.03
2019-04-10T15:14:40.790Z,17.87
2019-04-10T15:19:44.781Z,18.40
2019-04-10T15:24:48.343Z,26.13
2019-04-10T15:29:52.590Z,20.33
2019-04-10T15:34:56.725Z,22.40
2019-04-10T15:40:13.560Z,23.27
2019-04-10T15:45:07.244Z,25.37
2019-04-10T15:50:11.275Z,23.50
2019-04-10T15:55:15.283Z,27.70
2019-04-10T16:00:19.243Z,22.33
2019-04-10T16:05:23.673Z,21.90
2019-04-10T16:10:29.351Z,20.43
2019-04-10T16:15:40.882Z,17.67
2019-04-10T16:20:47.215Z,18.73
2019-04-10T16:25:52.798Z,20.70
2019-04-10T16:30:57.264Z,23.03
2019-04-10T16:36:01.091Z,14.53
2019-04-10T16:41:05.534Z,16.47
2019-04-10T16:46:09.357Z,17.37
2019-04-10T16:51:14.139Z,17.20
2019-04-10T16:56:18.251Z,17.53
2019-04-10T17:01:22.551Z,18.07
2019-04-10T17:06:26.515Z,17.63
2019-04-10T17:11:30.811Z,16.53
2019-04-10T17:16:35.704Z,22.23
2019-04-10T17:21:40.478Z,17.57
2019-04-10T17:26:44.593Z,16.87
2019-04-10T17:31:48.859Z,17.70
2019-04-10T17:36:53.543Z,18.77
2019-04-10T17:41:57.874Z,16.60
2019-04-10T17:47:02.050Z,18.53
2019-04-10T17:52:06.302Z,19.17
2019-04-10T17:57:10.720Z,27.57
2019-04-10T18:02:26.451Z,20.33
2019-04-10T18:07:20.151Z,23.35
2019-04-10T18:12:24.751Z,17.02
2019-04-10T18:17:29.155Z,26.13
2019-04-10T18:22:34.328Z,19.50
2019-04-10T18:27:38.680Z,18.67
2019-04-10T18:32:42.646Z,23.53
2019-04-10T18:37:47.695Z,18.83
2019-04-10T18:42:54.683Z,18.73
2019-04-10T18:47:58.529Z,28.17
2019-04-10T18:53:03.628Z,22.60
2019-04-10T18:58:09.611Z,21.97
2019-04-10T19:03:31.787Z,37.63
2019-04-10T19:08:37.650Z,34.37
2019-04-10T19:13:42.453Z,96.63
2019-04-10T19:18:47.899Z,91.60
2019-04-10T19:23:52.988Z,51.03
2019-04-10T19:28:59.116Z,70.90
2019-04-10T19:34:03.885Z,59.77
2019-04-10T19:39:08.344Z,56.30
2019-04-10T19:44:12.844Z,58.43
2019-04-10T19:49:16.926Z,44.23
2019-04-10T19:54:21.947Z,43.83
2019-04-10T19:59:27.003Z,43.87
2019-04-10T20:04:31.172Z,45.77
2019-04-10T20:09:34.996Z,39.83
2019-04-10T20:14:38.890Z,45.10
2019-04-10T20:19:42.651Z,48.37
2019-04-10T20:24:47.212Z,43.97
2019-04-10T20:29:51.541Z,47.87
2019-04-10T20:34:55.903Z,52.10
2019-04-10T20:40:01.222Z,41.33
2019-04-10T20:45:07.353Z,44.30
2019-04-10T20:50:11.999Z,46.97
2019-04-10T20:55:17.407Z,39.77
2019-04-10T21:00:23.106Z,46.20
2019-04-10T21:05:28.187Z,43.77
2019-04-10T21:10:33.271Z,39.37
2019-04-10T21:15:37.614Z,42.03
2019-04-10T21:20:43.098Z,39.43
2019-04-10T21:25:47.677Z,34.40
2019-04-10T21:31:02.358Z,39.30
2019-04-10T21:36:07.172Z,43.47
2019-04-10T21:41:12.534Z,39.80
2019-04-10T21:46:16.601Z,37.03
2019-04-10T21:51:20.751Z,38.43
2019-04-10T21:56:24.570Z,41.03
2019-04-10T22:01:28.459Z,37.10
2019-04-10T22:06:40.211Z,40.70
2019-04-10T22:11:51.719Z,33.53
2019-04-10T22:16:55.543Z,32.30
2019-04-10T22:21:59.684Z,37.47
2019-04-10T22:27:04.986Z,32.40
2019-04-10T22:32:09.176Z,28.60
2019-04-10T22:37:15.435Z,28.97
2019-04-10T22:42:19.235Z,40.73
2019-04-10T22:47:23.425Z,30.67
2019-04-10T22:52:28.185Z,33.03
2019-04-10T22:57:32.008Z,31.57
2019-04-10T23:02:36.142Z,28.33
2019-04-10T23:07:39.966Z,25.60
2019-04-10T23:12:52.265Z,28.40
2019-04-10T23:17:49.156Z,26.93
2019-04-10T23:22:52.983Z,27.27
2019-04-10T23:27:56.812Z,29.03
2019-04-10T23:33:01.519Z,25.93
2019-04-10T23:38:06.945Z,26.60
2019-04-10T23:43:14.043Z,21.53
2019-04-10T23:48:17.017Z,25.80
2019-04-10T23:53:22.524Z,20.27
2019-04-10T23:58:27.770Z,24.77
